This is the latest recevied weather packets stored in our database for station/object JG6YPS-13. If no packets are shown the sender has not sent any weather packets the latest 10 day(s).
| Time | Temp. | Humidity | Pressure | Rain* | Wind** | Luminosity | Snow |
|---|---|---|---|---|---|---|---|
| 1777536135 | 18.89° C | 87% | 1007.6 hPa | 0 mm | - | - | - |
| 1777535535 | 18.89° C | 87% | 1007.8 hPa | 0.25 mm | - | - | - |
| 1777534936 | 18.89° C | 86% | 1007.8 hPa | 0.25 mm | - | - | - |
| 1777534336 | 18.89° C | 86% | 1008 hPa | 0.25 mm | - | - | - |
| 1777533736 | 19.44° C | 84% | 1007.9 hPa | 0.25 mm | - | - | - |
| 1777533136 | 18.89° C | 81% | 1007.9 hPa | 0.25 mm | - | - | - |
| 1777532537 | 19.44° C | 82% | 1008.1 hPa | 0.25 mm | - | - | - |
| 1777531937 | 19.44° C | 79% | 1008 hPa | 0 mm | - | - | - |
| 1777531337 | 19.44° C | 77% | 1008.3 hPa | 0 mm | - | - | - |
| 1777530737 | 20° C | 78% | 1008.4 hPa | 0 mm | - | - | - |
| 1777530137 | 20° C | 78% | 1008.5 hPa | 0 mm | - | - | - |
| 1777529537 | 20° C | 77% | 1008.8 hPa | 0 mm | - | - | - |
| 1777528938 | 20° C | 79% | 1008.9 hPa | 0 mm | - | - | - |
| 1777528338 | 19.44° C | 79% | 1009 hPa | 0 mm | - | - | - |
| 1777527738 | 19.44° C | 75% | 1009 hPa | 0 mm | - | - | - |
| 1777527138 | 19.44° C | 76% | 1009.2 hPa | 0 mm | - | - | - |
| 1777526539 | 19.44° C | 77% | 1009.6 hPa | 0 mm | - | - | - |
| 1777525939 | 18.89° C | 77% | 1009.8 hPa | 0 mm | - | - | - |
| 1777525339 | 18.89° C | 77% | 1009.9 hPa | 0 mm | - | - | - |
| 1777524739 | 19.44° C | 75% | 1009.9 hPa | 0 mm | - | - | - |
| 1777524139 | 20° C | 70% | 1009.8 hPa | 0 mm | - | - | - |
| 1777523539 | 20.56° C | 69% | 1010.1 hPa | 0.25 mm | - | - | - |
| 1777522940 | 20.56° C | 69% | 1010.1 hPa | 0.25 mm | - | - | - |
| 1777522340 | 21.67° C | 68% | 1010.2 hPa | 0.25 mm | - | - | - |
| 1777521740 | 21.11° C | 68% | 1010.2 hPa | 0.25 mm | - | - | - |
* Rain latest hour (hover to see other rain measurements)
** Current wind speed in m/s (hover to see current wind gust speed)